createdAt,value
2022-08-25T00:01:58.814Z,14.45
2022-08-25T00:04:26.953Z,15.57
2022-08-25T00:07:00.618Z,15.05
2022-08-25T00:11:59.700Z,15.65
2022-08-25T00:14:33.736Z,15.15
2022-08-25T00:17:02.197Z,15.65
2022-08-25T00:19:32.285Z,16.83
2022-08-25T00:22:01.104Z,16.92
2022-08-25T00:24:32.772Z,15.88
2022-08-25T00:27:02.244Z,15.18
2022-08-25T00:29:30.784Z,14.18
2022-08-25T00:31:59.348Z,13.40
2022-08-25T00:34:32.789Z,9.23
2022-08-25T00:37:01.365Z,10.10
2022-08-25T00:39:29.789Z,9.60
2022-08-25T00:41:58.013Z,8.40
2022-08-25T00:44:29.057Z,7.93
2022-08-25T00:46:58.666Z,7.30
2022-08-25T00:49:34.126Z,7.53
2022-08-25T00:54:39.845Z,6.18
2022-08-25T00:57:08.508Z,6.70
2022-08-25T00:59:38.209Z,6.50
2022-08-25T01:02:08.254Z,6.38
2022-08-25T01:04:47.209Z,6.38
2022-08-25T01:07:19.062Z,5.37
2022-08-25T01:09:47.984Z,6.43
2022-08-25T01:12:16.109Z,6.28
2022-08-25T01:14:46.744Z,5.68
2022-08-25T01:17:14.995Z,6.88
2022-08-25T01:19:43.301Z,6.82
2022-08-25T01:22:12.580Z,7.07
2022-08-25T01:24:59.798Z,6.68
2022-08-25T01:27:28.889Z,7.45
2022-08-25T01:29:58.100Z,7.95
2022-08-25T01:32:25.891Z,7.78
2022-08-25T01:34:55.071Z,8.32
2022-08-25T01:37:24.754Z,9.98
2022-08-25T01:39:54.278Z,9.65
2022-08-25T01:42:59.021Z,10.52
2022-08-25T01:45:27.774Z,10.77
2022-08-25T01:47:57.364Z,11.88
2022-08-25T01:50:25.416Z,12.40
2022-08-25T01:53:03.883Z,11.85
2022-08-25T01:55:52.002Z,13.70
2022-08-25T01:58:24.650Z,12.63
2022-08-25T02:00:55.951Z,11.82
2022-08-25T02:03:25.014Z,13.32
2022-08-25T02:05:53.731Z,12.65
2022-08-25T02:08:23.484Z,13.63
2022-08-25T02:10:58.917Z,13.45
2022-08-25T02:13:31.478Z,12.60
2022-08-25T02:16:00.379Z,12.18
2022-08-25T02:18:29.138Z,12.73
2022-08-25T02:20:57.409Z,11.85
2022-08-25T02:23:25.264Z,11.98
2022-08-25T02:25:53.356Z,12.43
2022-08-25T02:28:21.562Z,12.10
2022-08-25T02:30:50.079Z,11.98
2022-08-25T02:33:18.288Z,10.85
2022-08-25T02:35:47.084Z,10.20
2022-08-25T02:38:14.903Z,10.80
2022-08-25T02:40:45.739Z,9.77
2022-08-25T02:43:13.927Z,10.05
2022-08-25T02:45:41.922Z,10.75
2022-08-25T02:48:11.530Z,11.25
2022-08-25T02:50:39.650Z,10.50
2022-08-25T02:53:08.866Z,10.73
2022-08-25T02:55:37.188Z,11.38
2022-08-25T02:58:06.100Z,9.63
2022-08-25T03:00:54.160Z,9.63
2022-08-25T03:03:22.512Z,9.57
2022-08-25T03:05:50.518Z,11.23
2022-08-25T03:08:18.808Z,10.25
2022-08-25T03:10:47.349Z,9.65
2022-08-25T03:13:15.700Z,9.50
2022-08-25T03:15:44.580Z,9.18
2022-08-25T03:18:14.081Z,9.57
2022-08-25T03:20:42.118Z,8.80
2022-08-25T03:23:10.122Z,7.93
2022-08-25T03:26:00.563Z,8.90
2022-08-25T03:28:33.224Z,8.90
2022-08-25T03:31:02.153Z,8.65
2022-08-25T03:33:31.145Z,7.72
2022-08-25T03:36:01.696Z,7.20
2022-08-25T03:38:31.980Z,7.25
2022-08-25T03:40:59.965Z,6.35
2022-08-25T03:43:27.939Z,6.90
2022-08-25T03:45:57.958Z,6.43
2022-08-25T03:48:29.636Z,7.32
2022-08-25T03:50:57.683Z,7.35
2022-08-25T03:53:25.814Z,6.80
2022-08-25T03:55:54.370Z,7.65
2022-08-25T03:58:22.963Z,7.00
2022-08-25T04:00:51.618Z,7.55
2022-08-25T04:03:21.019Z,6.72
2022-08-25T04:05:49.076Z,6.82
2022-08-25T04:08:17.008Z,6.10
2022-08-25T04:10:48.323Z,5.90
2022-08-25T04:13:16.174Z,6.97
2022-08-25T04:15:44.540Z,6.88
2022-08-25T04:18:17.679Z,5.90
2022-08-25T04:20:47.666Z,6.70
2022-08-25T04:23:15.473Z,6.57
2022-08-25T04:25:43.493Z,6.53
2022-08-25T04:28:14.324Z,7.80
2022-08-25T04:30:43.961Z,9.07
2022-08-25T04:33:13.819Z,9.70
2022-08-25T04:35:47.195Z,10.32
2022-08-25T04:38:15.187Z,8.95
2022-08-25T04:40:43.679Z,12.75
2022-08-25T04:43:11.590Z,11.68
2022-08-25T04:45:40.565Z,12.00
2022-08-25T04:48:09.002Z,14.18
2022-08-25T04:50:40.030Z,13.05
2022-08-25T04:53:08.344Z,14.15
2022-08-25T04:55:41.734Z,13.65
2022-08-25T04:58:14.814Z,13.75
2022-08-25T05:00:44.784Z,12.82
2022-08-25T05:03:12.861Z,11.18
2022-08-25T05:05:40.769Z,12.95
2022-08-25T05:08:10.543Z,13.18
2022-08-25T05:10:41.539Z,13.10
2022-08-25T05:13:11.391Z,13.13
2022-08-25T05:15:51.596Z,13.40
2022-08-25T05:18:20.186Z,12.95
2022-08-25T05:20:48.161Z,12.77
2022-08-25T05:23:16.397Z,12.63
2022-08-25T05:25:44.748Z,11.48
2022-08-25T05:28:15.030Z,12.88
2022-08-25T05:30:45.735Z,12.80
2022-08-25T05:33:15.417Z,12.20
2022-08-25T05:35:43.505Z,11.07
2022-08-25T05:38:15.464Z,13.52
2022-08-25T05:40:45.030Z,13.80
2022-08-25T05:43:15.945Z,14.05
2022-08-25T05:45:44.357Z,13.77
2022-08-25T05:48:12.616Z,11.10
2022-08-25T05:50:41.620Z,14.13
2022-08-25T05:53:09.617Z,12.57
2022-08-25T05:55:38.231Z,13.88
2022-08-25T05:58:07.720Z,14.25
2022-08-25T06:00:40.140Z,13.30
2022-08-25T06:03:12.085Z,12.20
2022-08-25T06:05:41.350Z,12.50
2022-08-25T06:08:09.351Z,12.73
2022-08-25T06:10:37.907Z,11.43
2022-08-25T06:13:06.912Z,10.85
2022-08-25T06:15:36.278Z,10.77
2022-08-25T06:18:05.458Z,10.80
2022-08-25T06:20:36.536Z,9.20
2022-08-25T06:23:08.672Z,9.77
2022-08-25T06:25:37.407Z,8.75
2022-08-25T06:28:05.759Z,8.13
2022-08-25T06:30:38.988Z,8.27
2022-08-25T06:33:07.327Z,6.57
2022-08-25T06:35:35.448Z,6.15
2022-08-25T06:38:03.768Z,7.32
2022-08-25T06:40:32.335Z,7.05
2022-08-25T06:43:01.466Z,6.25
2022-08-25T06:45:29.766Z,7.15
2022-08-25T06:47:59.520Z,6.50
2022-08-25T06:50:35.211Z,6.88
2022-08-25T06:53:03.669Z,4.60
2022-08-25T06:55:32.532Z,4.88
2022-08-25T06:58:04.810Z,5.10
2022-08-25T07:00:36.624Z,6.47
2022-08-25T07:03:05.432Z,6.22
2022-08-25T07:05:44.089Z,7.53
2022-08-25T07:08:12.943Z,6.82
2022-08-25T07:10:42.949Z,6.80
2022-08-25T07:13:16.498Z,6.00
2022-08-25T07:15:44.663Z,7.15
2022-08-25T07:18:13.365Z,7.38
2022-08-25T07:20:41.763Z,5.82
2022-08-25T07:23:09.731Z,5.80
2022-08-25T07:25:37.611Z,5.75
2022-08-25T07:28:05.578Z,7.70
2022-08-25T07:30:34.605Z,6.28
2022-08-25T07:33:06.957Z,5.70
2022-08-25T07:35:37.830Z,6.32
2022-08-25T07:38:09.179Z,6.22
2022-08-25T07:40:43.265Z,5.35
2022-08-25T07:43:11.528Z,5.10
2022-08-25T07:45:42.119Z,4.57
2022-08-25T07:48:21.621Z,4.93
2022-08-25T07:50:57.189Z,5.47
2022-08-25T07:53:28.263Z,4.13
2022-08-25T07:56:11.374Z,5.43
2022-08-25T07:58:40.918Z,5.47
2022-08-25T08:01:14.213Z,4.93
2022-08-25T08:03:50.828Z,4.22
2022-08-25T08:06:22.726Z,5.18
2022-08-25T08:08:54.663Z,5.38
2022-08-25T08:11:28.437Z,4.75
2022-08-25T08:13:57.643Z,3.90
2022-08-25T08:16:27.142Z,3.33
2022-08-25T08:18:56.719Z,3.70
2022-08-25T08:21:33.697Z,3.00
2022-08-25T08:24:05.043Z,3.33
2022-08-25T08:26:57.698Z,2.90
2022-08-25T08:29:30.122Z,3.60
2022-08-25T08:32:03.515Z,3.17
2022-08-25T08:34:38.523Z,2.78
2022-08-25T08:37:06.775Z,2.70
2022-08-25T08:39:39.250Z,3.00
2022-08-25T08:42:36.882Z,3.00
2022-08-25T08:45:13.953Z,2.30
2022-08-25T08:48:19.453Z,2.30
2022-08-25T08:51:02.040Z,3.00
2022-08-25T08:53:43.664Z,2.65
2022-08-25T08:56:30.774Z,2.55
2022-08-25T08:59:43.528Z,2.20
2022-08-25T09:02:49.759Z,2.53
2022-08-25T09:05:22.263Z,3.08
2022-08-25T09:07:55.102Z,2.72
2022-08-25T09:10:25.003Z,2.58
2022-08-25T09:13:30.461Z,3.45
2022-08-25T09:16:44.593Z,4.15
2022-08-25T09:19:27.285Z,8.43
2022-08-25T09:21:58.399Z,3.88
2022-08-25T09:24:45.155Z,2.53
2022-08-25T09:27:24.727Z,2.60
2022-08-25T09:30:01.129Z,3.05
2022-08-25T09:32:48.681Z,3.13
2022-08-25T09:35:26.275Z,5.07
2022-08-25T09:38:04.486Z,2.72
2022-08-25T09:40:35.858Z,2.58
2022-08-25T09:43:05.949Z,3.20
2022-08-25T09:45:40.665Z,2.75
2022-08-25T09:48:42.126Z,2.30
2022-08-25T09:51:42.293Z,2.03
2022-08-25T09:54:14.521Z,2.92
2022-08-25T09:56:59.492Z,3.28
2022-08-25T09:59:35.749Z,3.03
2022-08-25T10:02:21.585Z,2.80
2022-08-25T10:04:49.645Z,2.40
2022-08-25T10:07:32.743Z,2.53
2022-08-25T10:10:02.154Z,3.83
2022-08-25T10:12:42.495Z,4.68
2022-08-25T10:15:30.741Z,4.05
2022-08-25T10:18:26.925Z,3.28
2022-08-25T10:21:13.784Z,3.47
2022-08-25T10:23:52.959Z,3.80
2022-08-25T10:26:51.752Z,4.22
2022-08-25T10:29:25.709Z,2.90
2022-08-25T10:32:32.569Z,3.47
2022-08-25T10:35:01.642Z,4.43
2022-08-25T10:37:33.255Z,3.35
2022-08-25T10:40:23.257Z,3.80
2022-08-25T10:43:08.562Z,3.60
2022-08-25T10:46:09.125Z,2.97
2022-08-25T10:48:37.976Z,3.42
2022-08-25T10:51:30.137Z,2.00
2022-08-25T10:54:20.555Z,2.28
2022-08-25T10:57:01.012Z,2.10
2022-08-25T10:59:47.112Z,2.30
2022-08-25T11:02:24.329Z,2.10
2022-08-25T11:05:01.863Z,2.47
2022-08-25T11:07:38.965Z,1.85
2022-08-25T11:10:12.395Z,1.92
2022-08-25T11:12:51.300Z,2.35
2022-08-25T11:16:00.208Z,2.10
2022-08-25T11:18:33.312Z,1.92
2022-08-25T11:21:16.093Z,2.08
2022-08-25T11:23:56.066Z,2.13
2022-08-25T11:26:31.947Z,2.05
2022-08-25T11:29:19.899Z,2.47
2022-08-25T11:31:53.505Z,2.33
2022-08-25T11:34:22.120Z,2.33
2022-08-25T11:36:56.563Z,1.85
2022-08-25T11:39:45.797Z,2.30
2022-08-25T11:42:21.844Z,2.17
2022-08-25T11:45:08.432Z,2.67
2022-08-25T11:48:04.198Z,2.63
2022-08-25T11:50:36.181Z,2.95
2022-08-25T11:53:16.219Z,2.63
2022-08-25T11:55:53.917Z,3.15
2022-08-25T11:58:30.755Z,3.53
2022-08-25T12:01:05.839Z,2.95
2022-08-25T12:03:37.409Z,3.38
2022-08-25T12:07:16.398Z,3.40
2022-08-25T12:09:51.389Z,3.70
2022-08-25T12:12:41.530Z,2.97
2022-08-25T12:15:27.378Z,3.80
2022-08-25T12:18:16.565Z,4.17
2022-08-25T12:20:56.415Z,4.00
2022-08-25T12:23:46.409Z,3.53
2022-08-25T12:26:57.874Z,2.40
2022-08-25T12:29:28.618Z,3.00
2022-08-25T12:32:20.426Z,3.10
2022-08-25T12:35:24.214Z,2.67
2022-08-25T12:38:17.553Z,2.85
2022-08-25T12:40:46.912Z,3.55
2022-08-25T12:43:37.147Z,4.25
2022-08-25T12:46:25.918Z,3.60
2022-08-25T12:49:06.681Z,3.05
2022-08-25T12:52:06.825Z,3.58
2022-08-25T12:54:58.047Z,4.07
2022-08-25T12:57:45.868Z,3.28
2022-08-25T13:00:20.390Z,3.00
2022-08-25T13:02:58.102Z,3.88
2022-08-25T13:05:26.239Z,3.08
2022-08-25T13:08:26.904Z,3.58
2022-08-25T13:11:10.000Z,2.97
2022-08-25T13:13:44.879Z,3.33
2022-08-25T13:16:28.910Z,3.30
2022-08-25T13:21:38.267Z,3.80
2022-08-25T13:24:24.927Z,3.85
2022-08-25T13:26:56.385Z,4.00
2022-08-25T13:29:30.054Z,4.63
2022-08-25T13:32:09.454Z,4.53
2022-08-25T13:34:39.256Z,4.35
2022-08-25T13:37:30.589Z,4.63
2022-08-25T13:40:10.945Z,4.45
2022-08-25T13:42:42.411Z,3.50
2022-08-25T13:45:23.871Z,3.13
2022-08-25T13:47:56.113Z,3.35
2022-08-25T13:50:27.338Z,3.00
2022-08-25T13:53:22.138Z,2.63
2022-08-25T13:55:54.993Z,3.10
2022-08-25T13:58:38.683Z,3.08
2022-08-25T14:01:48.047Z,2.45
2022-08-25T14:04:20.510Z,3.10
2022-08-25T14:06:49.353Z,3.30
2022-08-25T14:09:18.681Z,3.60
2022-08-25T14:11:57.288Z,3.55
2022-08-25T14:14:25.645Z,3.17
2022-08-25T14:17:22.152Z,3.47
2022-08-25T14:19:57.363Z,3.58
2022-08-25T14:22:26.853Z,3.47
2022-08-25T14:24:54.900Z,4.15
2022-08-25T14:27:23.316Z,4.40
2022-08-25T14:29:52.940Z,3.60
2022-08-25T14:32:22.882Z,4.05
2022-08-25T14:34:50.938Z,3.72
2022-08-25T14:37:19.779Z,3.95
2022-08-25T14:39:47.883Z,4.03
2022-08-25T14:42:16.955Z,4.78
2022-08-25T14:44:45.974Z,4.55
2022-08-25T14:47:15.246Z,4.00
2022-08-25T14:49:45.993Z,3.58
2022-08-25T14:52:19.359Z,4.53
2022-08-25T14:54:50.831Z,4.18
2022-08-25T14:57:19.066Z,4.13
2022-08-25T14:59:47.113Z,3.67
2022-08-25T15:02:20.268Z,3.75
2022-08-25T15:04:53.020Z,3.25
2022-08-25T15:07:39.805Z,3.38
2022-08-25T15:10:08.357Z,3.22
2022-08-25T15:12:47.333Z,3.13
2022-08-25T15:15:16.194Z,3.42
2022-08-25T15:17:45.368Z,3.20
2022-08-25T15:20:14.144Z,3.38
2022-08-25T15:22:43.895Z,3.28
2022-08-25T15:25:13.011Z,3.17
2022-08-25T15:27:42.761Z,5.57
2022-08-25T15:30:13.100Z,7.78
2022-08-25T15:32:41.218Z,8.35
2022-08-25T15:35:11.034Z,6.85
2022-08-25T15:37:43.880Z,7.35
2022-08-25T15:40:12.543Z,6.55
2022-08-25T15:42:42.761Z,6.78
2022-08-25T15:45:14.526Z,6.78
2022-08-25T15:47:43.643Z,7.25
2022-08-25T15:50:14.993Z,7.25
2022-08-25T15:52:46.348Z,6.88
2022-08-25T15:55:16.633Z,5.15
2022-08-25T15:57:45.211Z,4.25
2022-08-25T16:00:16.721Z,4.15
2022-08-25T16:02:45.447Z,4.28
2022-08-25T16:05:16.475Z,3.70
2022-08-25T16:07:46.238Z,3.45
2022-08-25T16:10:21.955Z,3.75
2022-08-25T16:12:50.072Z,3.55
2022-08-25T16:15:18.193Z,3.90
2022-08-25T16:17:52.103Z,3.72
2022-08-25T16:20:21.016Z,3.60
2022-08-25T16:22:51.339Z,3.65
2022-08-25T16:25:19.777Z,3.33
2022-08-25T16:27:48.301Z,3.28
2022-08-25T16:30:17.500Z,3.30
2022-08-25T16:32:46.832Z,3.70
2022-08-25T16:35:14.805Z,3.70
2022-08-25T16:37:42.873Z,3.70
2022-08-25T16:40:14.934Z,4.00
2022-08-25T16:42:43.892Z,3.97
2022-08-25T16:45:12.354Z,3.28
2022-08-25T16:47:42.686Z,4.43
2022-08-25T16:50:11.385Z,4.20
2022-08-25T16:52:59.289Z,5.05
2022-08-25T16:55:29.230Z,4.70
2022-08-25T16:58:08.063Z,4.60
2022-08-25T17:00:39.008Z,4.05
2022-08-25T17:03:08.885Z,4.25
2022-08-25T17:05:40.708Z,4.32
2022-08-25T17:08:27.309Z,4.60
2022-08-25T17:11:05.861Z,4.75
2022-08-25T17:13:36.024Z,3.97
2022-08-25T17:16:04.482Z,4.30
2022-08-25T17:18:32.554Z,4.00
2022-08-25T17:21:06.894Z,4.13
2022-08-25T17:23:37.070Z,4.15
2022-08-25T17:26:11.900Z,5.63
2022-08-25T17:28:43.113Z,6.40
2022-08-25T17:31:14.180Z,6.35
2022-08-25T17:33:42.514Z,6.22
2022-08-25T17:36:14.173Z,5.38
2022-08-25T17:38:46.143Z,4.95
2022-08-25T17:41:15.362Z,4.57
2022-08-25T17:43:44.645Z,4.07
2022-08-25T17:46:13.343Z,4.60
2022-08-25T17:48:43.932Z,14.30
2022-08-25T17:51:13.236Z,4.30
2022-08-25T17:53:45.096Z,3.50
2022-08-25T17:56:17.720Z,3.95
2022-08-25T17:58:47.903Z,4.10
2022-08-25T18:01:26.859Z,3.55
2022-08-25T18:03:55.485Z,3.75
2022-08-25T18:06:25.497Z,4.18
2022-08-25T18:08:58.741Z,3.70
2022-08-25T18:11:30.076Z,4.45
2022-08-25T18:13:58.296Z,3.58
2022-08-25T18:16:27.217Z,4.32
2022-08-25T18:18:55.723Z,4.03
2022-08-25T18:21:30.431Z,3.60
2022-08-25T18:23:59.769Z,3.75
2022-08-25T18:26:28.148Z,3.67
2022-08-25T18:28:56.005Z,4.25
2022-08-25T18:31:25.489Z,4.43
2022-08-25T18:33:53.777Z,3.60
2022-08-25T18:36:21.885Z,3.85
2022-08-25T18:39:08.751Z,4.75
2022-08-25T18:41:39.156Z,3.85
2022-08-25T18:44:08.900Z,4.22
2022-08-25T18:46:40.325Z,4.05
2022-08-25T18:49:08.909Z,4.25
2022-08-25T18:51:37.224Z,4.25
2022-08-25T18:54:05.346Z,4.68
2022-08-25T18:56:34.132Z,3.28
2022-08-25T18:59:02.088Z,3.90
2022-08-25T19:01:30.436Z,3.65
2022-08-25T19:03:59.075Z,4.15
2022-08-25T19:06:27.951Z,5.10
2022-08-25T19:08:56.034Z,4.30
2022-08-25T19:11:24.010Z,4.50
2022-08-25T19:13:53.025Z,4.05
2022-08-25T19:16:38.357Z,3.90
2022-08-25T19:19:07.154Z,3.90
2022-08-25T19:21:36.113Z,4.00
2022-08-25T19:24:04.187Z,4.35
2022-08-25T19:26:34.550Z,3.60
2022-08-25T19:29:09.572Z,4.40
2022-08-25T19:31:38.076Z,4.55
2022-08-25T19:34:08.369Z,4.38
2022-08-25T19:36:41.768Z,4.88
2022-08-25T19:39:10.032Z,4.93
2022-08-25T19:41:39.414Z,4.57
2022-08-25T19:44:12.216Z,5.40
2022-08-25T19:46:41.804Z,6.50
2022-08-25T19:49:19.602Z,7.53
2022-08-25T19:51:51.521Z,9.25
2022-08-25T19:54:25.128Z,9.77
2022-08-25T19:56:54.289Z,10.73
2022-08-25T19:59:40.630Z,11.43
2022-08-25T20:02:15.262Z,10.35
2022-08-25T20:04:49.803Z,10.10
2022-08-25T20:07:25.814Z,9.30
2022-08-25T20:09:58.397Z,9.70
2022-08-25T20:12:30.406Z,7.70
2022-08-25T20:14:58.555Z,8.80
2022-08-25T20:17:30.996Z,8.05
2022-08-25T20:22:33.191Z,8.60
2022-08-25T20:25:13.056Z,9.63
2022-08-25T20:27:55.045Z,9.85
2022-08-25T20:30:23.997Z,8.18
2022-08-25T20:32:52.368Z,7.78
2022-08-25T20:35:20.671Z,8.02
2022-08-25T20:37:55.870Z,7.93
2022-08-25T20:40:25.685Z,7.35
2022-08-25T20:42:55.217Z,8.07
2022-08-25T20:45:23.307Z,7.57
2022-08-25T20:47:51.488Z,7.60
2022-08-25T20:50:22.980Z,8.30
2022-08-25T20:52:51.620Z,8.55
2022-08-25T20:55:20.697Z,7.85
2022-08-25T20:57:49.372Z,8.73
2022-08-25T21:00:18.088Z,9.52
2022-08-25T21:02:46.439Z,8.82
2022-08-25T21:05:14.549Z,10.60
2022-08-25T21:07:42.787Z,11.00
2022-08-25T21:10:14.067Z,11.18
2022-08-25T21:12:46.296Z,12.00
2022-08-25T21:15:18.194Z,12.70
2022-08-25T21:17:54.408Z,12.15
2022-08-25T21:20:23.935Z,12.63
2022-08-25T21:22:52.323Z,11.02
2022-08-25T21:25:21.860Z,11.13
2022-08-25T21:27:49.783Z,9.32
2022-08-25T21:30:18.738Z,9.57
2022-08-25T21:32:53.273Z,8.48
2022-08-25T21:35:23.735Z,6.65
2022-08-25T21:37:53.831Z,6.03
2022-08-25T21:40:23.148Z,6.47
2022-08-25T21:42:52.143Z,5.38
2022-08-25T21:45:21.831Z,5.50
2022-08-25T21:51:19.759Z,5.40
2022-08-25T21:53:51.070Z,5.43
2022-08-25T21:56:21.785Z,5.05
2022-08-25T21:58:50.488Z,4.50
2022-08-25T22:01:19.898Z,4.30
2022-08-25T22:03:49.215Z,3.70
2022-08-25T22:06:19.196Z,4.35
2022-08-25T22:08:49.201Z,4.05
2022-08-25T22:11:17.573Z,4.05
2022-08-25T22:13:47.257Z,4.22
2022-08-25T22:16:21.526Z,4.18
2022-08-25T22:18:52.436Z,4.90
2022-08-25T22:21:22.353Z,3.55
2022-08-25T22:23:50.655Z,4.10
2022-08-25T22:26:22.133Z,4.53
2022-08-25T22:28:50.333Z,3.67
2022-08-25T22:31:20.748Z,3.70
2022-08-25T22:33:49.654Z,3.60
2022-08-25T22:36:29.359Z,3.90
2022-08-25T22:38:57.506Z,3.80
2022-08-25T22:41:27.195Z,3.25
2022-08-25T22:43:59.420Z,3.35
2022-08-25T22:46:28.720Z,3.85
2022-08-25T22:48:58.453Z,3.47
2022-08-25T22:51:28.519Z,3.03
2022-08-25T22:53:58.169Z,4.20
2022-08-25T22:56:34.619Z,3.90
2022-08-25T22:59:09.498Z,3.90
2022-08-25T23:01:37.847Z,3.72
2022-08-25T23:04:08.197Z,3.55
2022-08-25T23:06:36.629Z,3.90
2022-08-25T23:09:05.617Z,3.63
2022-08-25T23:11:38.576Z,4.07
2022-08-25T23:14:09.675Z,4.22
2022-08-25T23:16:41.826Z,4.10
2022-08-25T23:19:14.285Z,4.10
2022-08-25T23:22:02.023Z,4.10
2022-08-25T23:24:32.907Z,3.83
2022-08-25T23:27:02.138Z,3.92
2022-08-25T23:29:31.452Z,4.32
2022-08-25T23:32:02.644Z,5.70
2022-08-25T23:34:31.758Z,5.25
2022-08-25T23:37:02.054Z,6.28
2022-08-25T23:39:30.839Z,6.07
2022-08-25T23:42:00.384Z,7.28
2022-08-25T23:44:30.988Z,6.60
2022-08-25T23:46:59.438Z,6.00
2022-08-25T23:49:27.571Z,5.75
2022-08-25T23:52:04.625Z,5.35
2022-08-25T23:54:33.209Z,4.95
2022-08-25T23:57:01.551Z,5.82
2022-08-25T23:59:30.205Z,5.50
